Time;durP1;ratioP1;P1;durP2;ratioP2;P2;SDS_P1;SDS_P2;PMS_P1;PMS_P2;Temp;Humidity;BMP_temperature;BMP_pressure;BME280_temperature;BME280_humidity;BME280_pressure;Samples;Min_cycle;Max_cycle;Signal;HPM_P1;HPM_P2
2022/07/10 00:00:30;;;;;;;6.00;1.77;;;;;;;14.20;100.00;102600.63;4942980;28;20666;-79
2022/07/10 00:02:59;;;;;;;5.57;1.85;;;;;;;14.19;100.00;102612.06;5005391;28;20061;-79
2022/07/10 00:05:28;;;;;;;7.00;1.42;;;;;;;14.15;100.00;102612.91;4963297;28;20081;-79
2022/07/10 00:07:57;;;;;;;12.77;1.77;;;;;;;14.06;100.00;102615.41;4960911;28;20038;-79
2022/07/10 00:10:29;;;;;;;9.95;1.92;;;;;;;13.95;100.00;102601.97;4971472;28;20053;-79
2022/07/10 00:12:58;;;;;;;7.68;1.73;;;;;;;13.90;100.00;102605.41;4963538;28;20035;-79
2022/07/10 00:15:28;;;;;;;;;;;;;;;13.86;100.00;102599.16;4972324;28;20053;-79
2022/07/10 00:17:57;;;;;;;10.27;1.73;;;;;;;13.81;100.00;102591.13;4982196;28;20290;-79
2022/07/10 00:20:25;;;;;;;9.10;1.70;;;;;;;13.76;100.00;102586.59;4988538;28;20046;-79
2022/07/10 00:22:54;;;;;;;7.38;2.08;;;;;;;13.72;100.00;102577.69;4980249;28;20058;-79
2022/07/10 00:25:30;;;;;;;8.98;1.50;;;;;;;13.67;100.00;102582.06;4992211;28;20274;-79
2022/07/10 00:27:58;;;;;;;9.00;2.47;;;;;;;13.61;100.00;102582.84;4989403;28;20053;-79
2022/07/10 00:30:26;;;;;;;9.60;1.60;;;;;;;13.56;100.00;102579.19;4991549;28;20046;-78
2022/07/10 00:32:55;;;;;;;9.85;2.00;;;;;;;13.50;100.00;102571.16;4949351;28;20054;-78
2022/07/10 00:35:24;;;;;;;8.52;1.88;;;;;;;13.48;100.00;102582.56;4980042;28;20045;-79
2022/07/10 00:37:55;;;;;;;4.97;1.30;;;;;;;13.43;100.00;102571.88;4987127;28;20050;-78
2022/07/10 00:40:23;;;;;;;5.65;1.48;;;;;;;13.41;100.00;102569.22;4976501;28;20534;-79
2022/07/10 00:42:52;;;;;;;6.93;1.65;;;;;;;13.39;100.00;102567.41;4971793;28;20530;-78
2022/07/10 00:45:20;;;;;;;6.45;1.50;;;;;;;13.36;100.00;102570.88;4978205;28;20407;-79
2022/07/10 00:47:49;;;;;;;7.47;1.85;;;;;;;13.33;100.00;102572.59;4953916;28;20030;-78
2022/07/10 00:50:17;;;;;;;12.70;1.60;;;;;;;13.30;100.00;102562.81;4995216;28;20682;-79
2022/07/10 00:52:46;;;;;;;8.30;1.70;;;;;;;13.30;100.00;102564.53;4986215;28;20054;-79
2022/07/10 00:55:14;;;;;;;4.65;1.48;;;;;;;13.29;100.00;102560.09;4979366;28;20331;-79
2022/07/10 00:57:43;;;;;;;7.78;1.38;;;;;;;13.33;100.00;102567.28;4971273;28;20033;-78
2022/07/10 01:00:11;;;;;;;10.13;1.50;;;;;;;13.35;100.00;102566.44;4975820;28;20050;-80
2022/07/10 01:02:43;;;;;;;3.22;1.17;;;;;;;13.37;100.00;102574.44;4969983;28;20051;-81
2022/07/10 01:05:12;;;;;;;5.13;1.38;;;;;;;13.41;100.00;102573.63;4985138;28;20054;-82
2022/07/10 01:07:40;;;;;;;8.88;2.05;;;;;;;13.44;100.00;102578.97;4968176;28;20287;-80
2022/07/10 01:10:09;;;;;;;11.60;1.90;;;;;;;13.45;100.00;102570.16;4967483;28;20069;-81
2022/07/10 01:12:38;;;;;;;6.95;1.75;;;;;;;13.43;100.00;102567.47;4963457;28;20035;-80
2022/07/10 01:15:08;;;;;;;6.18;1.85;;;;;;;13.41;100.00;102558.63;4965995;28;21114;-82
2022/07/10 01:17:36;;;;;;;8.05;2.17;;;;;;;13.41;100.00;102553.31;4985146;28;20034;-81
2022/07/10 01:20:09;;;;;;;3.75;1.20;;;;;;;13.41;100.00;102547.13;4961099;28;20343;-81
2022/07/10 01:22:38;;;;;;;3.60;1.45;;;;;;;13.39;100.00;102540.94;4983607;28;20050;-80
2022/07/10 01:25:07;;;;;;;6.93;1.20;;;;;;;13.39;100.00;102539.16;4964225;28;20543;-81
2022/07/10 01:27:38;;;;;;;4.63;1.27;;;;;;;13.38;100.00;102532.09;4980999;28;20046;-81
2022/07/10 01:30:07;;;;;;;5.68;1.67;;;;;;;13.37;100.00;102532.94;4969019;28;20382;-80
2022/07/10 01:32:40;;;;;;;5.05;1.52;;;;;;;13.37;100.00;102530.31;4987089;28;20404;-81
2022/07/10 01:35:08;;;;;;;7.40;1.20;;;;;;;13.37;100.00;102529.41;4953596;28;20065;-81
2022/07/10 01:37:38;;;;;;;8.95;2.05;;;;;;;13.37;100.00;102532.94;4969681;28;20038;-81
2022/07/10 01:40:08;;;;;;;4.10;1.58;;;;;;;13.40;100.00;102538.31;4982163;28;20049;-80
2022/07/10 01:42:38;;;;;;;6.63;2.03;;;;;;;13.39;100.00;102525.03;4958611;28;20066;-81
2022/07/10 01:45:10;;;;;;;8.60;1.67;;;;;;;13.39;100.00;102525.91;4999197;28;20359;-82
2022/07/10 01:47:38;;;;;;;7.60;1.65;;;;;;;13.40;100.00;102527.72;4963188;28;20030;-81
2022/07/10 01:50:07;;;;;;;6.25;1.35;;;;;;;13.40;100.00;102524.16;4946545;28;20038;-81
2022/07/10 01:52:36;;;;;;;13.02;2.22;;;;;;;13.41;100.00;102523.31;4988355;28;20034;-81
2022/07/10 01:55:06;;;;;;;7.43;1.50;;;;;;;13.41;100.00;102529.50;4964020;28;20042;-80
2022/07/10 01:57:34;;;;;;;6.20;1.42;;;;;;;13.42;100.00;102525.06;4975070;28;20043;-81
2022/07/10 02:00:03;;;;;;;7.68;1.75;;;;;;;13.44;100.00;102523.38;4962125;28;20049;-81
2022/07/10 02:02:39;;;;;;;7.88;1.75;;;;;;;13.46;100.00;102524.28;4977534;28;20038;-81
2022/07/10 02:05:10;;;;;;;10.65;2.13;;;;;;;13.48;100.00;102516.34;4948102;28;20291;-82
2022/07/10 02:07:38;;;;;;;12.55;1.70;;;;;;;13.50;100.00;102509.34;4978714;28;20038;-81
2022/07/10 02:10:07;;;;;;;4.82;1.67;;;;;;;13.51;100.00;102506.69;4961759;28;20084;-83
2022/07/10 02:12:35;;;;;;;4.90;1.40;;;;;;;13.51;100.00;102504.06;4964388;28;20393;-82
2022/07/10 02:15:06;;;;;;;6.70;1.45;;;;;;;13.53;100.00;102504.97;4971312;28;20164;-83
2022/07/10 02:17:34;;;;;;;9.02;1.90;;;;;;;13.55;100.00;102503.25;4987262;28;20042;-81
2022/07/10 02:20:03;;;;;;;9.02;1.70;;;;;;;13.56;100.00;102505.03;4972061;28;20081;-81
2022/07/10 02:22:32;;;;;;;7.05;1.60;;;;;;;13.58;100.00;102498.00;4965526;28;20042;-81
2022/07/10 02:25:00;;;;;;;9.90;1.60;;;;;;;13.58;100.00;102492.72;4983314;28;20043;-81
2022/07/10 02:27:32;;;;;;;7.82;1.80;;;;;;;13.57;100.00;102487.38;4968526;28;20042;-81
2022/07/10 02:30:00;;;;;;;6.43;2.03;;;;;;;13.57;100.00;102485.66;4986019;28;20058;-82
2022/07/10 02:32:29;;;;;;;7.22;1.92;;;;;;;13.57;100.00;102490.03;4962802;28;20039;-82
2022/07/10 02:34:57;;;;;;;6.32;1.60;;;;;;;13.58;100.00;102486.53;4963427;28;20061;-81
2022/07/10 02:37:26;;;;;;;10.68;1.90;;;;;;;13.58;100.00;102486.53;4943079;28;20050;-80
2022/07/10 02:39:54;;;;;;;10.02;2.03;;;;;;;13.56;100.00;102491.78;4986057;28;20042;-80
2022/07/10 02:42:22;;;;;;;6.65;1.63;;;;;;;13.56;100.00;102491.78;4998468;28;20034;-81
2022/07/10 02:44:51;;;;;;;12.45;2.80;;;;;;;13.56;100.00;102490.91;4958215;28;20046;-81
2022/07/10 02:47:20;;;;;;;3.65;1.30;;;;;;;13.56;100.00;102483.84;4981770;28;20172;-81
2022/07/10 02:49:48;;;;;;;5.10;1.83;;;;;;;13.57;100.00;102492.69;4980031;28;20042;-81
2022/07/10 02:52:17;;;;;;;11.32;1.83;;;;;;;13.56;100.00;102482.97;4957990;28;20431;-80
2022/07/10 02:54:45;;;;;;;3.47;1.35;;;;;;;13.56;100.00;102489.16;4983248;28;20050;-81
2022/07/10 02:57:13;;;;;;;10.15;1.42;;;;;;;13.57;100.00;102495.31;4962199;28;20424;-81
2022/07/10 02:59:42;;;;;;;3.17;1.20;;;;;;;13.56;100.00;102486.50;4977454;28;20509;-81
2022/07/10 03:02:10;;;;;;;8.20;1.40;;;;;;;13.57;100.00;102485.66;4955647;28;20086;-81
2022/07/10 03:04:39;;;;;;;8.32;1.52;;;;;;;13.58;100.00;102481.22;4991259;28;20042;-80
2022/07/10 03:07:07;;;;;;;8.50;1.60;;;;;;;13.58;100.00;102482.13;4938297;28;20267;-80
2022/07/10 03:09:36;;;;;;;4.93;1.40;;;;;;;13.58;100.00;102481.22;4956331;28;20053;-81
2022/07/10 03:12:05;;;;;;;5.90;1.00;;;;;;;13.58;100.00;102475.94;4945885;28;20034;-81
2022/07/10 03:14:33;;;;;;;8.38;1.58;;;;;;;13.59;100.00;102485.66;4978149;28;20058;-80
2022/07/10 03:17:02;;;;;;;8.88;2.10;;;;;;;13.61;100.00;102479.53;4958747;28;20160;-80
2022/07/10 03:19:30;;;;;;;7.00;1.55;;;;;;;13.61;100.00;102476.88;4982277;28;20045;-80
2022/07/10 03:21:59;;;;;;;5.15;1.38;;;;;;;13.62;100.00;102476.00;4967455;28;20042;-80
2022/07/10 03:24:27;;;;;;;7.80;1.90;;;;;;;13.64;100.00;102474.25;4944991;28;20414;-81
2022/07/10 03:26:57;;;;;;;11.32;1.67;;;;;;;13.66;100.00;102476.94;4978784;28;20049;-81
2022/07/10 03:29:25;;;;;;;9.60;1.60;;;;;;;13.67;100.00;102469.88;4984831;28;20057;-81
2022/07/10 03:31:53;;;;;;;8.32;1.77;;;;;;;13.68;100.00;102461.06;4970070;28;20301;-81
2022/07/10 03:34:22;;;;;;;7.05;1.70;;;;;;;13.70;100.00;102462.00;4955722;28;20039;-81
2022/07/10 03:36:51;;;;;;;6.53;1.35;;;;;;;13.70;100.00;102457.56;4969209;28;20038;-82
2022/07/10 03:39:19;;;;;;;10.65;1.90;;;;;;;13.75;100.00;102460.31;4940368;28;20047;-81
2022/07/10 03:41:49;;;;;;;8.88;2.35;;;;;;;13.77;100.00;102466.53;4985262;28;20178;-81
2022/07/10 03:44:17;;;;;;;8.98;2.15;;;;;;;13.77;100.00;102464.75;4964041;28;20541;-80
2022/07/10 03:46:46;;;;;;;10.25;1.80;;;;;;;13.80;100.00;102464.81;4977698;28;20039;-81
2022/07/10 03:49:14;;;;;;;7.75;2.08;;;;;;;13.82;100.00;102468.38;4986509;28;20275;-80
2022/07/10 03:51:43;;;;;;;12.27;2.03;;;;;;;13.84;100.00;102473.72;4976178;28;20374;-81
2022/07/10 03:54:12;;;;;;;13.68;2.25;;;;;;;13.86;100.00;102477.28;4951430;28;20054;-81
2022/07/10 03:59:27;;;;;;;8.23;2.00;;;;;;;13.92;100.00;102477.34;4977893;28;20474;-80
2022/07/10 04:01:55;;;;;;;10.43;1.98;;;;;;;13.95;100.00;102466.81;5002578;28;20058;-81
2022/07/10 04:04:24;;;;;;;7.93;2.30;;;;;;;13.98;100.00;102466.84;4971689;28;20572;-81
2022/07/10 04:06:52;;;;;;;11.65;1.95;;;;;;;14.01;100.00;102461.59;4956172;28;20499;-81
2022/07/10 04:09:22;;;;;;;12.93;2.80;;;;;;;14.08;100.00;102459.91;4979235;28;20392;-80
2022/07/10 04:11:50;;;;;;;11.70;2.10;;;;;;;14.14;100.00;102467.97;4979768;28;20046;-81
2022/07/10 04:14:19;;;;;;;9.25;1.63;;;;;;;14.23;100.00;102462.81;5002445;28;20057;-81
2022/07/10 04:16:47;;;;;;;14.02;2.15;;;;;;;14.34;100.00;102462.03;5006268;28;20506;-81
2022/07/10 04:19:16;;;;;;;8.65;2.20;;;;;;;14.42;100.00;102463.03;4947516;28;20404;-81
2022/07/10 04:21:44;;;;;;;15.07;1.80;;;;;;;14.63;100.00;102465.13;4974280;28;20051;-81
2022/07/10 04:24:13;;;;;;;10.70;2.13;;;;;;;14.69;100.00;102474.88;4973157;28;20046;-80
2022/07/10 04:26:44;;;;;;;9.27;2.00;;;;;;;14.67;100.00;102471.31;4968338;28;20046;-80
2022/07/10 04:29:12;;;;;;;11.95;2.08;;;;;;;14.65;100.00;102465.13;4959809;28;20061;-81
2022/07/10 04:31:41;;;;;;;7.55;1.83;;;;;;;14.62;100.00;102460.69;4950503;28;20053;-81
2022/07/10 04:34:09;;;;;;;7.13;1.90;;;;;;;14.60;100.00;102462.41;5007520;28;20057;-81
2022/07/10 04:36:40;;;;;;;6.65;1.85;;;;;;;14.57;100.00;102460.63;5005161;28;20057;-81
2022/07/10 04:39:08;;;;;;;11.55;2.22;;;;;;;14.54;100.00;102457.91;4988285;28;20054;-82
2022/07/10 04:41:36;;;;;;;7.82;1.70;;;;;;;14.53;100.00;102464.06;4950977;28;20674;-81
2022/07/10 04:44:07;;;;;;;12.57;2.08;;;;;;;14.54;100.00;102462.31;4989142;28;20491;-81
2022/07/10 04:46:35;;;;;;;9.27;2.00;;;;;;;14.55;100.00;102464.97;4974789;28;20042;-81
2022/07/10 04:49:04;;;;;;;5.20;1.33;;;;;;;14.58;100.00;102464.16;4985375;28;20050;-80
2022/07/10 04:51:32;;;;;;;9.07;2.00;;;;;;;14.60;100.00;102455.34;4985391;28;20057;-80
2022/07/10 04:54:03;;;;;;;12.48;2.60;;;;;;;14.62;100.00;102450.06;4989324;28;20049;-81
2022/07/10 04:56:31;;;;;;;7.03;1.55;;;;;;;14.60;100.00;102454.47;4967051;28;20049;-80
2022/07/10 04:59:03;;;;;;;11.23;2.35;;;;;;;14.59;100.00;102458.88;4975681;28;20042;-81
2022/07/10 05:01:31;;;;;;;12.63;2.38;;;;;;;14.57;100.00;102457.06;4986631;28;20241;-82
2022/07/10 05:04:00;;;;;;;7.20;1.60;;;;;;;14.55;100.00;102458.78;4992647;28;20499;-81
2022/07/10 05:06:28;;;;;;;7.70;1.60;;;;;;;14.54;100.00;102460.53;4973716;28;20689;-80
2022/07/10 05:08:57;;;;;;;8.75;2.22;;;;;;;14.52;100.00;102466.72;5004573;28;20053;-80
2022/07/10 05:11:25;;;;;;;13.40;2.10;;;;;;;14.50;100.00;102464.03;4958665;28;20057;-80
2022/07/10 05:13:54;;;;;;;8.88;1.83;;;;;;;14.51;100.00;102467.56;5004197;28;20050;-81
2022/07/10 05:16:24;;;;;;;;;;;;;;;14.52;100.00;102472.91;4974830;28;20051;-81
2022/07/10 05:18:53;;;;;;;10.10;1.83;;;;;;;14.54;100.00;102478.22;4963419;28;20297;-81
2022/07/10 05:21:21;;;;;;;9.43;1.95;;;;;;;14.54;100.00;102463.19;4987691;28;20402;-81
2022/07/10 05:23:49;;;;;;;13.70;1.90;;;;;;;14.54;100.00;102467.63;4962411;28;20042;-81
2022/07/10 05:26:18;;;;;;;7.18;1.70;;;;;;;14.55;100.00;102474.69;4977513;28;20038;-81
2022/07/10 05:28:46;;;;;;;8.77;2.03;;;;;;;14.54;100.00;102467.63;4943521;28;20051;-81
2022/07/10 05:31:17;;;;;;;7.53;1.80;;;;;;;14.54;100.00;102460.53;5000279;28;20058;-81
2022/07/10 05:33:46;;;;;;;7.50;2.13;;;;;;;14.56;100.00;102466.75;4977992;28;20046;-82
2022/07/10 05:36:14;;;;;;;9.85;2.28;;;;;;;14.55;100.00;102459.66;4966701;28;20050;-80
2022/07/10 05:38:43;;;;;;;9.10;1.90;;;;;;;14.55;100.00;102461.44;5003964;28;20061;-80
2022/07/10 05:41:12;;;;;;;12.48;2.08;;;;;;;14.57;100.00;102459.72;4961786;28;20550;-80
2022/07/10 05:43:40;;;;;;;9.80;3.10;;;;;;;14.59;100.00;102458.88;4947649;28;20047;-80
2022/07/10 05:46:08;;;;;;;9.05;2.00;;;;;;;14.61;100.00;102456.22;4976054;28;20034;-80
2022/07/10 05:48:38;;;;;;;10.38;2.05;;;;;;;14.63;100.00;102465.13;4965936;28;20073;-80
2022/07/10 05:51:07;;;;;;;13.05;1.92;;;;;;;14.65;100.00;102465.13;4980411;28;20535;-80
2022/07/10 05:53:55;;;;;;;5.45;1.80;;;;;;;14.65;100.00;102474.00;4988268;28;20077;-80
2022/07/10 05:56:24;;;;;;;8.00;1.83;;;;;;;14.67;100.00;102474.91;4976563;28;20030;-80
2022/07/10 05:58:55;;;;;;;5.03;1.52;;;;;;;14.67;100.00;102474.91;4971515;28;20057;-81
2022/07/10 06:01:23;;;;;;;8.43;2.03;;;;;;;14.68;100.00;102483.72;5002670;28;20049;-80
2022/07/10 06:03:52;;;;;;;8.95;1.60;;;;;;;14.67;100.00;102480.19;4975937;28;20060;-80
2022/07/10 06:06:23;;;;;;;5.25;1.50;;;;;;;14.67;100.00;102490.81;4968606;28;20038;-81
2022/07/10 06:08:51;;;;;;;3.85;1.60;;;;;;;14.67;100.00;102481.94;4983384;28;20379;-81
2022/07/10 06:11:20;;;;;;;9.25;2.20;;;;;;;14.66;100.00;102475.75;4969312;28;20073;-80
2022/07/10 06:13:48;;;;;;;8.68;2.00;;;;;;;14.67;100.00;102480.19;4938300;28;20054;-80
2022/07/10 06:16:17;;;;;;;8.95;1.60;;;;;;;14.68;100.00;102481.97;4973399;28;20033;-80
2022/07/10 06:18:45;;;;;;;4.45;1.88;;;;;;;14.70;100.00;102487.28;4979485;28;20034;-81
2022/07/10 06:21:21;;;;;;;8.68;1.73;;;;;;;14.68;100.00;102476.66;4970216;28;20059;-81
2022/07/10 06:23:50;;;;;;;6.43;1.70;;;;;;;14.70;100.00;102479.34;4970134;28;20054;-80
2022/07/10 06:26:18;;;;;;;7.75;1.67;;;;;;;14.69;100.00;102477.53;4993162;28;20037;-80
2022/07/10 06:28:46;;;;;;;6.65;1.90;;;;;;;14.70;100.00;102477.56;4972081;28;20046;-80
2022/07/10 06:31:15;;;;;;;4.80;1.60;;;;;;;14.74;100.00;102474.06;4979172;28;20051;-80
2022/07/10 06:33:44;;;;;;;4.78;1.42;;;;;;;14.79;100.00;102479.44;4976697;28;20054;-80
2022/07/10 06:36:12;;;;;;;6.50;2.00;;;;;;;14.82;100.00;102475.06;4994873;28;20069;-81
2022/07/10 06:38:41;;;;;;;7.57;1.52;;;;;;;14.93;100.00;102474.28;5005423;28;20054;-81
2022/07/10 06:41:10;;;;;;;7.25;1.55;;;;;;;15.04;100.00;102467.34;4985746;28;20427;-79
2022/07/10 06:43:39;;;;;;;5.47;1.38;;;;;;;15.30;100.00;102470.25;4944582;28;20046;-80
2022/07/10 06:46:07;;;;;;;3.55;1.33;;;;;;;15.59;100.00;102469.63;5005623;28;20053;-80
2022/07/10 06:48:39;;;;;;;5.40;0.90;;;;;;;15.80;100.00;102476.91;5008630;28;20515;-80
2022/07/10 06:51:08;;;;;;;4.13;1.17;;;;;;;15.95;100.00;102474.38;4974166;28;20042;-81
2022/07/10 06:53:43;;;;;;;5.15;0.93;;;;;;;16.09;100.00;102478.88;4933874;28;20529;-81
2022/07/10 06:56:13;;;;;;;3.03;0.80;;;;;;;16.12;100.00;102481.53;5007439;28;20288;-82
2022/07/10 06:58:42;;;;;;;;;;;;;;;16.13;100.00;102478.91;4972886;28;20430;-81
2022/07/10 07:01:11;;;;;;;6.72;1.20;;;;;;;16.15;100.00;102479.78;4952362;28;19922;-81
2022/07/10 07:03:40;;;;;;;4.60;1.08;;;;;;;16.11;100.00;102480.66;4984737;28;20599;-82
2022/07/10 07:06:10;;;;;;;2.50;1.20;;;;;;;16.14;100.00;102480.69;4977386;28;20323;-82
2022/07/10 07:08:38;;;;;;;4.90;0.93;;;;;;;16.15;100.00;102479.78;4971918;28;20412;-82
2022/07/10 07:11:07;;;;;;;4.45;1.20;;;;;;;16.18;100.00;102476.25;4983536;28;20050;-82
2022/07/10 07:13:36;;;;;;;2.78;1.08;;;;;;;16.24;100.00;102486.97;4979174;28;20065;-82
2022/07/10 07:16:10;;;;;;;2.20;1.13;;;;;;;16.27;100.00;102470.13;4965310;28;20039;-82
2022/07/10 07:18:49;;;;;;;6.90;1.17;;;;;;;16.28;100.00;102464.81;4960896;28;20034;-82
2022/07/10 07:24:05;;;;;;;8.13;1.65;;;;;;;16.26;100.00;102489.63;4990958;28;20395;-83
2022/07/10 07:26:33;;;;;;;7.50;1.10;;;;;;;16.21;100.00;102470.97;4984123;28;20050;-81
2022/07/10 07:29:01;;;;;;;10.10;1.33;;;;;;;16.23;100.00;102476.31;4981409;28;20046;-81
2022/07/10 07:31:30;;;;;;;4.65;1.08;;;;;;;16.31;100.00;102472.81;4950814;28;20246;-81
2022/07/10 07:33:58;;;;;;;5.90;1.10;;;;;;;16.47;100.00;102472.88;4983327;28;20058;-81
2022/07/10 07:36:27;;;;;;;5.43;1.20;;;;;;;16.53;100.00;102472.91;4970094;28;20050;-81
2022/07/10 07:38:55;;;;;;;4.57;1.20;;;;;;;16.54;100.00;102472.00;4980474;28;20057;-81
2022/07/10 07:41:24;;;;;;;2.95;1.40;;;;;;;16.51;100.00;102485.31;4952094;28;20534;-80
2022/07/10 07:43:52;;;;;;;3.33;1.10;;;;;;;16.49;100.00;102471.13;4997645;28;20055;-80
2022/07/10 07:46:21;;;;;;;6.95;1.20;;;;;;;16.51;100.00;102464.03;4939158;28;20050;-81
2022/07/10 07:48:49;;;;;;;4.88;1.77;;;;;;;16.53;100.00;102473.78;4985122;28;20046;-81
2022/07/10 07:51:18;;;;;;;1.73;1.00;;;;;;;16.57;100.00;102470.25;4962693;28;20038;-81
2022/07/10 07:53:46;;;;;;;3.10;1.00;;;;;;;16.60;100.00;102479.13;4974476;28;20043;-80
2022/07/10 07:56:16;;;;;;;3.45;1.02;;;;;;;16.57;100.00;102472.91;4984635;28;20047;-81
2022/07/10 07:58:44;;;;;;;3.20;1.13;;;;;;;16.51;100.00;102477.34;4961792;28;20047;-82
2022/07/10 08:01:13;;;;;;;3.85;1.10;;;;;;;16.43;100.00;102482.63;4968797;28;20057;-81
2022/07/10 08:03:45;;;;;;;2.83;1.10;;;;;;;16.39;100.00;102480.84;4968739;28;20335;-82
2022/07/10 08:06:33;;;;;;;7.70;1.70;;;;;;;16.41;100.00;102472.81;4976932;28;20034;-82
2022/07/10 08:09:02;;;;;;;3.60;1.20;;;;;;;16.46;100.00;102479.94;4960335;28;20419;-82
2022/07/10 08:11:31;;;;;;;4.85;1.33;;;;;;;16.49;100.00;102472.00;4959212;28;20043;-82
2022/07/10 08:14:00;;;;;;;4.35;1.50;;;;;;;16.51;100.00;102478.22;4961278;28;20055;-82
2022/07/10 08:16:28;;;;;;;6.15;1.25;;;;;;;16.51;100.00;102478.22;4943944;28;20034;-83
2022/07/10 08:18:57;;;;;;;5.65;1.27;;;;;;;16.48;100.00;102477.31;4907002;28;20416;-83
2022/07/10 08:21:26;;;;;;;5.22;1.20;;;;;;;16.44;100.00;102467.53;4968178;28;20516;-82
2022/07/10 08:23:54;;;;;;;4.50;1.20;;;;;;;16.41;100.00;102475.50;4962894;28;20401;-82
2022/07/10 08:26:25;;;;;;;3.58;1.05;;;;;;;16.38;100.00;102474.59;4955747;28;20718;-82
2022/07/10 08:28:53;;;;;;;6.82;1.70;;;;;;;16.36;100.00;102475.47;4929907;28;20054;-81
2022/07/10 08:31:22;;;;;;;4.88;1.27;;;;;;;16.28;100.00;102478.09;4941991;28;20423;-81
2022/07/10 08:33:52;;;;;;;5.32;1.50;;;;;;;16.23;100.00;102485.16;4922923;28;20053;-81
2022/07/10 08:36:20;;;;;;;2.45;1.33;;;;;;;16.18;100.00;102489.56;4931638;28;20043;-82
2022/07/10 08:39:09;;;;;;;3.70;1.20;;;;;;;16.09;100.00;102482.44;4947432;28;20356;-81
2022/07/10 08:41:38;;;;;;;5.93;1.48;;;;;;;16.02;100.00;102480.59;4952958;28;20053;-82
2022/07/10 08:44:06;;;;;;;5.50;1.30;;;;;;;16.01;100.00;102484.16;4940232;28;20218;-82
2022/07/10 08:46:35;;;;;;;6.88;1.52;;;;;;;16.03;100.00;102482.41;4880640;28;20062;-82
2022/07/10 08:49:10;;;;;;;2.78;1.10;;;;;;;16.04;100.00;102477.97;4901065;28;20046;-82
2022/07/10 08:51:44;;;;;;;4.75;1.20;;;;;;;16.11;100.00;102479.78;4956185;28;20047;-81
2022/07/10 08:54:15;;;;;;;5.35;1.10;;;;;;;16.24;100.00;102480.72;4969131;28;20051;-82
2022/07/10 08:56:50;;;;;;;7.63;1.52;;;;;;;16.34;100.00;102472.81;4965175;28;20069;-81
2022/07/10 08:59:20;;;;;;;5.93;1.30;;;;;;;16.42;100.00;102470.19;4938372;28;20047;-81
2022/07/10 09:01:49;;;;;;;4.30;1.13;;;;;;;16.50;100.00;102483.53;4931848;28;20059;-81
2022/07/10 09:04:25;;;;;;;2.90;0.98;;;;;;;16.53;100.00;102479.09;4900565;29;20393;-82
2022/07/10 09:06:55;;;;;;;6.55;1.38;;;;;;;16.57;100.00;102478.22;4936468;28;20275;-82
2022/07/10 09:09:24;;;;;;;7.70;1.75;;;;;;;16.58;100.00;102473.81;4926870;29;20027;-81
2022/07/10 09:11:58;;;;;;;6.75;1.17;;;;;;;16.57;100.00;102488.88;4907531;29;20047;-82
2022/07/10 09:14:32;;;;;;;3.58;1.15;;;;;;;16.61;100.00;102484.47;4941516;28;20508;-83
2022/07/10 09:17:03;;;;;;;3.85;1.35;;;;;;;16.66;100.00;102484.50;4904858;29;20512;-82
2022/07/10 09:19:32;;;;;;;4.32;1.00;;;;;;;16.69;100.00;102495.13;4895958;29;20046;-82
2022/07/10 09:22:08;;;;;;;3.88;0.98;;;;;;;16.70;100.00;102476.50;4920838;28;20039;-82
2022/07/10 09:24:45;;;;;;;2.95;1.05;;;;;;;16.71;100.00;102477.41;4942162;29;20273;-84
2022/07/10 09:27:15;;;;;;;3.97;1.10;;;;;;;16.68;100.00;102480.06;4935505;28;20051;-82
2022/07/10 09:29:51;;;;;;;4.82;1.00;;;;;;;16.66;100.00;102480.06;4947758;28;20165;-84
2022/07/10 09:32:20;;;;;;;4.50;1.00;;;;;;;16.57;100.00;102483.56;4931122;28;20042;-82
2022/07/10 09:36:04;;;;;;;3.33;1.00;;;;;;;16.47;100.00;102494.16;4925658;28;20418;-83
2022/07/10 09:37:41;;;;;;;4.40;1.08;;;;;;;16.35;100.00;102489.66;4925679;28;20059;-83
2022/07/10 09:40:10;;;;;;;5.35;1.48;;;;;;;16.32;100.00;102493.19;4935933;29;20079;-81
2022/07/10 09:42:42;;;;;;;4.40;0.80;;;;;;;16.32;100.00;102492.31;4940948;29;20047;-82
2022/07/10 09:45:17;;;;;;;2.30;1.08;;;;;;;16.26;100.00;102502.94;4944331;29;20039;-82
2022/07/10 09:47:49;;;;;;;6.90;1.23;;;;;;;16.19;100.00;102499.31;4935368;28;20055;-82
2022/07/10 09:50:33;;;;;;;5.25;0.90;;;;;;;16.20;100.00;102501.13;4922438;28;20039;-81
2022/07/10 09:53:04;;;;;;;5.00;1.30;;;;;;;16.23;100.00;102501.13;4923637;29;20066;-81
2022/07/10 09:55:36;;;;;;;1.23;0.85;;;;;;;16.28;100.00;102496.72;4945057;29;20055;-82
2022/07/10 09:58:09;;;;;;;4.30;1.23;;;;;;;16.30;100.00;102494.06;4948939;28;20047;-82
2022/07/10 10:04:18;;;;;;;3.03;1.25;;;;;;;16.32;100.00;102503.84;4966608;28;20239;-82
2022/07/10 10:06:53;;;;;;;3.85;1.70;;;;;;;16.33;100.00;102491.41;4949480;28;20046;-82
2022/07/10 10:09:40;;;;;;;3.25;1.00;;;;;;;16.32;100.00;102492.31;4958022;28;20582;-82
2022/07/10 10:12:31;;;;;;;3.67;1.25;;;;;;;16.28;100.00;102493.19;4983775;28;20953;-82
2022/07/10 10:15:00;;;;;;;4.35;1.10;;;;;;;16.27;100.00;102500.25;4984137;28;20047;-82
2022/07/10 10:17:29;;;;;;;4.72;1.15;;;;;;;16.30;100.00;102492.31;4983363;28;20054;-82
2022/07/10 10:22:48;;;;;;;2.38;1.40;;;;;;;16.28;100.00;102488.75;4966052;28;20051;-81
2022/07/10 10:25:17;;;;;;;5.03;1.30;;;;;;;16.31;100.00;102490.53;4981645;28;20046;-82
2022/07/10 10:27:45;;;;;;;4.43;1.08;;;;;;;16.30;100.00;102486.09;4992844;28;20054;-82
2022/07/10 10:30:14;;;;;;;4.13;1.33;;;;;;;16.28;100.00;102495.84;4948216;28;20035;-81
2022/07/10 10:32:43;;;;;;;1.70;1.10;;;;;;;16.19;100.00;102499.31;4991365;28;20522;-81
2022/07/10 10:35:46;;;;;;;1.25;1.00;;;;;;;16.09;100.00;102498.38;4982125;28;20039;-81
2022/07/10 10:38:15;;;;;;;5.97;1.10;;;;;;;16.05;100.00;102501.91;4955209;28;20054;-82
2022/07/10 10:40:43;;;;;;;2.28;0.90;;;;;;;16.05;100.00;102501.91;4966651;28;20042;-80
2022/07/10 10:43:23;;;;;;;1.35;0.65;;;;;;;16.06;100.00;102508.09;4953550;28;20424;-81
2022/07/10 10:45:51;;;;;;;2.50;0.85;;;;;;;16.05;100.00;102496.59;4973174;28;20404;-80
2022/07/10 10:48:21;;;;;;;0.80;0.65;;;;;;;16.09;100.00;102492.19;4981026;28;20270;-81
2022/07/10 10:51:06;;;;;;;2.13;0.70;;;;;;;16.17;100.00;102499.31;4974527;28;20176;-81
2022/07/10 10:53:34;;;;;;;1.85;0.68;;;;;;;16.25;100.00;102493.16;4958467;28;20053;-81
2022/07/10 10:56:03;;;;;;;2.13;0.88;;;;;;;16.33;100.00;102481.69;4966768;28;20503;-81
2022/07/10 10:58:45;;;;;;;2.38;0.90;;;;;;;16.40;100.00;102476.38;4978493;28;20360;-79
2022/07/10 11:01:20;;;;;;;2.10;0.70;;;;;;;16.47;100.00;102472.88;4975274;28;20274;-80
2022/07/10 11:04:05;;;;;;;1.27;0.77;;;;;;;16.51;100.00;102477.34;4971744;28;20416;-79
2022/07/10 11:06:50;;;;;;;1.35;0.90;;;;;;;16.52;100.00;102477.34;4971431;28;20384;-79
2022/07/10 11:09:24;;;;;;;1.30;0.63;;;;;;;16.48;100.00;102474.66;4943140;28;20790;-79
2022/07/10 11:11:59;;;;;;;1.65;1.05;;;;;;;16.43;100.00;102473.75;4970445;28;20050;-81
2022/07/10 11:14:29;;;;;;;1.77;0.88;;;;;;;16.41;100.00;102481.72;4979400;28;20042;-80
2022/07/10 11:16:58;;;;;;;1.63;0.73;;;;;;;16.40;100.00;102479.06;4997334;28;20618;-79
2022/07/10 11:19:31;;;;;;;1.80;0.90;;;;;;;16.37;100.00;102472.84;4972531;28;20687;-79
2022/07/10 11:22:24;;;;;;;1.27;0.75;;;;;;;16.37;100.00;102478.16;4973465;28;20396;-80
2022/07/10 11:25:03;;;;;;;2.50;0.90;;;;;;;16.35;100.00;102476.34;4949599;28;20050;-79
2022/07/10 11:28:04;;;;;;;2.33;1.00;;;;;;;16.36;100.00;102480.81;4971076;28;20409;-80
2022/07/10 11:30:52;;;;;;;2.47;0.90;;;;;;;16.40;100.00;102487.03;4966179;28;20317;-80
2022/07/10 11:33:22;;;;;;;4.68;1.42;;;;;;;16.38;100.00;102482.56;4967645;28;20061;-79
2022/07/10 11:35:53;;;;;;;1.98;0.85;;;;;;;16.37;100.00;102491.47;4981374;28;20043;-79
2022/07/10 11:38:24;;;;;;;2.50;1.05;;;;;;;16.31;100.00;102488.78;4971138;28;20050;-80
2022/07/10 11:40:54;;;;;;;1.92;0.80;;;;;;;16.20;100.00;102501.13;4923905;28;20586;-79
2022/07/10 11:43:23;;;;;;;2.75;1.10;;;;;;;16.11;100.00;102501.94;4981163;28;20038;-80